Time;durP1;ratioP1;P1;durP2;ratioP2;P2;SDS_P1;SDS_P2;PMS_P1;PMS_P2;Temp;Humidity;BMP_temperature;BMP_pressure;BME280_temperature;BME280_humidity;BME280_pressure;Samples;Min_cycle;Max_cycle;Signal;HPM_P1;HPM_P2
2022/03/26 00:01:49;;;;;;;56.40;30.33;;;7.70;99.90;;;;;;5016861;28;20060;-68
2022/03/26 00:04:14;;;;;;;48.33;28.15;;;7.70;99.90;;;;;;4997505;28;20053;-68
2022/03/26 00:06:40;;;;;;;63.13;35.97;;;7.70;99.90;;;;;;4998947;28;20048;-68
2022/03/26 00:09:05;;;;;;;60.95;33.72;;;7.70;99.90;;;;;;5020334;28;20050;-67
2022/03/26 00:11:31;;;;;;;65.40;38.22;;;7.70;99.90;;;;;;4997196;28;20088;-67
2022/03/26 00:13:57;;;;;;;62.88;34.15;;;7.60;99.90;;;;;;4999924;28;20087;-67
2022/03/26 00:16:22;;;;;;;49.92;28.60;;;7.50;99.90;;;;;;5014798;28;20115;-68
2022/03/26 00:18:48;;;;;;;56.53;31.00;;;7.50;99.90;;;;;;5017232;28;20095;-68
2022/03/26 00:21:13;;;;;;;52.60;28.90;;;7.50;99.90;;;;;;5014822;28;20107;-67
2022/03/26 00:23:39;;;;;;;71.60;39.22;;;7.40;99.90;;;;;;5022289;28;20064;-68
2022/03/26 00:26:05;;;;;;;70.35;39.33;;;7.40;99.90;;;;;;5007783;28;20053;-68
2022/03/26 00:28:31;;;;;;;64.97;36.33;;;7.40;99.90;;;;;;5025763;28;20045;-68
2022/03/26 00:30:57;;;;;;;56.60;34.08;;;7.30;99.90;;;;;;5008336;28;20052;-68
2022/03/26 00:33:23;;;;;;;60.78;33.97;;;7.30;99.90;;;;;;5037001;28;20125;-68
2022/03/26 00:35:49;;;;;;;70.47;41.20;;;7.40;99.90;;;;;;5028626;28;20045;-68
2022/03/26 00:38:14;;;;;;;71.70;41.10;;;7.30;99.90;;;;;;5023676;28;20476;-68
2022/03/26 00:40:41;;;;;;;61.47;34.88;;;7.30;99.90;;;;;;5020042;28;20045;-67
2022/03/26 00:43:06;;;;;;;70.90;43.20;;;7.30;99.90;;;;;;5007703;28;20053;-67
2022/03/26 00:45:34;;;;;;;62.95;36.15;;;7.20;99.90;;;;;;5018148;28;20037;-68
2022/03/26 00:48:00;;;;;;;77.68;42.10;;;7.20;99.90;;;;;;5027376;28;20056;-67
2022/03/26 00:50:26;;;;;;;63.90;37.38;;;7.20;99.90;;;;;;5016360;28;20041;-68
2022/03/26 00:52:52;;;;;;;64.07;36.97;;;7.20;99.90;;;;;;5028783;28;20130;-67
2022/03/26 00:55:17;;;;;;;55.08;32.33;;;7.20;99.90;;;;;;4999429;28;20140;-68
2022/03/26 00:57:43;;;;;;;68.88;39.33;;;7.10;99.90;;;;;;5023285;28;20048;-67
2022/03/26 01:00:12;;;;;;;73.30;38.28;;;7.00;99.90;;;;;;5022154;28;20137;-67
2022/03/26 01:02:38;;;;;;;70.50;38.40;;;7.00;99.90;;;;;;4998642;28;20053;-68
2022/03/26 01:05:05;;;;;;;70.55;35.50;;;6.90;99.90;;;;;;5006428;28;20053;-68
2022/03/26 01:07:31;;;;;;;55.33;30.35;;;6.90;99.90;;;;;;5017306;28;20049;-68
2022/03/26 01:09:58;;;;;;;60.00;32.08;;;6.80;99.90;;;;;;5023260;28;20822;-67
2022/03/26 01:12:25;;;;;;;46.30;27.50;;;6.70;99.90;;;;;;5035799;28;20063;-67
2022/03/26 01:14:52;;;;;;;53.60;30.83;;;6.70;99.90;;;;;;5010343;28;20053;-68
2022/03/26 01:17:18;;;;;;;48.78;31.13;;;6.50;99.90;;;;;;5015903;28;20056;-68
2022/03/26 01:19:45;;;;;;;54.33;29.00;;;6.40;99.90;;;;;;5005476;28;20053;-68
2022/03/26 01:22:11;;;;;;;57.45;30.90;;;6.40;99.90;;;;;;5020960;28;20046;-68
2022/03/26 01:24:37;;;;;;;48.80;30.77;;;6.40;99.90;;;;;;5000340;28;20665;-68
2022/03/26 01:27:03;;;;;;;47.97;28.52;;;6.30;99.90;;;;;;5007451;28;20041;-68
2022/03/26 01:29:29;;;;;;;49.60;29.85;;;6.30;99.90;;;;;;5017468;28;20111;-68
2022/03/26 01:31:54;;;;;;;58.25;32.20;;;6.30;99.90;;;;;;5031437;28;20048;-68
2022/03/26 01:34:22;;;;;;;63.17;35.38;;;6.20;99.90;;;;;;5036422;28;20051;-68
2022/03/26 01:36:48;;;;;;;48.45;27.83;;;6.20;99.90;;;;;;5027689;28;20114;-68
2022/03/26 01:39:13;;;;;;;61.70;33.70;;;6.20;99.90;;;;;;4998278;28;20057;-68
2022/03/26 01:41:39;;;;;;;57.08;30.67;;;6.20;99.90;;;;;;5021937;28;20052;-67
2022/03/26 01:44:05;;;;;;;60.60;31.65;;;6.20;99.90;;;;;;5003411;28;20056;-68
2022/03/26 01:46:48;;;;;;;63.13;34.90;;;6.10;99.90;;;;;;5000818;28;20901;-68
2022/03/26 01:49:14;;;;;;;50.72;26.73;;;6.10;99.90;;;;;;5017979;28;20063;-67
2022/03/26 01:51:40;;;;;;;62.17;33.38;;;6.10;99.90;;;;;;5019631;28;20104;-67
2022/03/26 01:54:07;;;;;;;50.75;29.50;;;6.10;99.90;;;;;;5004480;28;20049;-68
2022/03/26 01:56:34;;;;;;;59.22;32.38;;;6.00;99.90;;;;;;5023795;28;20769;-67
2022/03/26 01:59:00;;;;;;;66.28;32.40;;;6.00;99.90;;;;;;5026410;28;20118;-68
2022/03/26 02:01:25;;;;;;;62.30;31.10;;;6.00;99.90;;;;;;5027995;28;20052;-67
2022/03/26 02:03:51;;;;;;;61.65;34.20;;;6.00;99.90;;;;;;5015048;28;20057;-68
2022/03/26 02:06:19;;;;;;;58.75;31.55;;;5.90;99.90;;;;;;5003131;28;20046;-67
2022/03/26 02:08:45;;;;;;;54.72;30.45;;;5.80;99.90;;;;;;4991977;28;20061;-69
2022/03/26 02:11:11;;;;;;;70.22;37.00;;;5.90;99.90;;;;;;5020857;28;20041;-68
2022/03/26 02:13:49;;;;;;;60.28;35.20;;;5.90;99.90;;;;;;5025454;28;20131;-68
2022/03/26 02:16:15;;;;;;;69.32;35.75;;;5.80;99.90;;;;;;5005632;28;20443;-69
2022/03/26 02:18:41;;;;;;;75.43;37.15;;;5.80;99.90;;;;;;5020112;28;20052;-68
2022/03/26 02:21:07;;;;;;;62.22;35.70;;;5.70;99.90;;;;;;4997350;28;20049;-69
2022/03/26 02:23:33;;;;;;;69.20;39.60;;;5.70;99.90;;;;;;5026735;28;20049;-69
2022/03/26 02:25:58;;;;;;;69.90;36.72;;;5.70;99.90;;;;;;5015080;28;20048;-69
2022/03/26 02:28:24;;;;;;;73.22;39.78;;;5.60;99.90;;;;;;5005416;28;20631;-68
2022/03/26 02:30:50;;;;;;;68.53;37.78;;;5.60;99.90;;;;;;5019285;28;20061;-69
2022/03/26 02:33:16;;;;;;;79.57;42.78;;;5.60;99.90;;;;;;5018353;28;20092;-69
2022/03/26 02:35:41;;;;;;;85.95;41.92;;;5.50;99.90;;;;;;5013481;28;20108;-68
2022/03/26 02:38:08;;;;;;;72.07;38.53;;;5.40;99.90;;;;;;5030498;28;20041;-68
2022/03/26 02:40:34;;;;;;;57.70;35.42;;;5.30;99.90;;;;;;5002459;28;20435;-68
2022/03/26 02:42:59;;;;;;;56.67;33.80;;;5.20;99.90;;;;;;5028526;28;20045;-69
2022/03/26 02:45:25;;;;;;;70.70;37.67;;;5.20;99.90;;;;;;5038981;28;20191;-69
2022/03/26 02:47:51;;;;;;;69.75;38.58;;;5.30;99.90;;;;;;5013507;28;20092;-68
2022/03/26 02:50:18;;;;;;;63.25;38.25;;;5.20;99.90;;;;;;5005338;28;20049;-68
2022/03/26 02:52:48;;;;;;;72.68;38.50;;;5.20;99.90;;;;;;5020248;28;20052;-69
2022/03/26 02:55:13;;;;;;;80.72;41.40;;;5.00;99.90;;;;;;5028568;28;20056;-68
2022/03/26 02:57:39;;;;;;;76.78;40.17;;;5.20;99.90;;;;;;5019900;28;20046;-69
2022/03/26 03:00:07;;;;;;;65.53;35.13;;;5.80;99.90;;;;;;5022885;28;20463;-68
2022/03/26 03:02:34;;;;;;;85.68;48.35;;;5.30;99.90;;;;;;5018502;28;20558;-68
2022/03/26 03:05:00;;;;;;;63.95;36.42;;;5.30;99.90;;;;;;5008015;28;20129;-69
2022/03/26 03:07:25;;;;;;;72.85;39.17;;;5.30;99.90;;;;;;5028923;28;20048;-68
2022/03/26 03:09:51;;;;;;;82.05;44.92;;;5.40;99.90;;;;;;5021370;28;20226;-66
2022/03/26 03:12:17;;;;;;;83.53;42.10;;;5.40;99.90;;;;;;5004034;28;20044;-66
2022/03/26 03:14:43;;;;;;;62.63;38.15;;;5.30;99.90;;;;;;5024138;28;20043;-66
2022/03/26 03:17:09;;;;;;;64.28;36.75;;;5.10;99.90;;;;;;5004720;28;20482;-66
2022/03/26 03:19:35;;;;;;;73.50;42.72;;;5.00;99.90;;;;;;5034398;28;20114;-66
2022/03/26 03:22:03;;;;;;;84.72;42.90;;;5.00;99.90;;;;;;5006642;28;20053;-66
2022/03/26 03:24:29;;;;;;;75.32;42.58;;;5.00;99.90;;;;;;5026585;28;20045;-66
2022/03/26 03:26:55;;;;;;;75.85;41.88;;;5.00;99.90;;;;;;5000830;28;20056;-66
2022/03/26 03:29:21;;;;;;;84.63;45.80;;;4.90;99.90;;;;;;5011436;28;20069;-66
2022/03/26 03:31:48;;;;;;;86.20;48.22;;;5.00;99.90;;;;;;5018591;28;20045;-66
2022/03/26 03:34:14;;;;;;;88.03;48.60;;;4.90;99.90;;;;;;5023254;28;20041;-66
2022/03/26 03:36:39;;;;;;;82.82;46.53;;;4.90;99.90;;;;;;5030806;28;20156;-66
2022/03/26 03:39:05;;;;;;;86.03;46.50;;;4.80;99.90;;;;;;5026706;28;20051;-66
2022/03/26 03:41:31;;;;;;;85.65;44.55;;;4.80;99.90;;;;;;5034081;28;20045;-66
2022/03/26 03:43:56;;;;;;;86.53;45.05;;;4.80;99.90;;;;;;5024972;28;20048;-66
2022/03/26 03:46:22;;;;;;;85.20;44.95;;;4.80;99.90;;;;;;5016621;28;20628;-66
2022/03/26 03:48:47;;;;;;;78.93;46.97;;;4.80;99.90;;;;;;5029636;28;20122;-66
2022/03/26 03:51:13;;;;;;;82.07;46.67;;;4.80;99.90;;;;;;5017937;28;20715;-66
2022/03/26 03:53:38;;;;;;;91.47;48.65;;;4.80;99.90;;;;;;5026052;28;20072;-66
2022/03/26 03:56:04;;;;;;;82.13;46.03;;;4.90;99.90;;;;;;5003592;28;20049;-66
2022/03/26 03:58:30;;;;;;;99.38;50.05;;;4.90;99.90;;;;;;5021442;28;20042;-66
2022/03/26 04:00:55;;;;;;;103.63;52.70;;;4.90;99.90;;;;;;5031113;28;20048;-66
2022/03/26 04:03:22;;;;;;;103.63;51.88;;;4.90;99.90;;;;;;5033364;28;20045;-66
2022/03/26 04:05:48;;;;;;;78.50;44.80;;;5.00;99.90;;;;;;5027417;28;20100;-66
2022/03/26 04:08:13;;;;;;;87.28;41.95;;;5.00;99.90;;;;;;4999616;28;20057;-66
2022/03/26 04:10:39;;;;;;;102.07;52.35;;;5.00;99.90;;;;;;5029637;28;20593;-66
2022/03/26 04:13:04;;;;;;;80.65;44.97;;;5.00;99.90;;;;;;5017041;28;20045;-66
2022/03/26 04:15:30;;;;;;;100.38;53.60;;;5.00;99.90;;;;;;5022861;28;20072;-66
2022/03/26 04:17:56;;;;;;;120.95;62.10;;;5.00;99.90;;;;;;5025979;28;20041;-66
2022/03/26 04:20:22;;;;;;;111.13;59.75;;;5.10;99.90;;;;;;5020255;28;20769;-66
2022/03/26 04:22:47;;;;;;;117.40;63.72;;;5.10;99.90;;;;;;5025900;28;20042;-66
2022/03/26 04:25:13;;;;;;;110.28;58.38;;;5.10;99.90;;;;;;5018104;28;20041;-66
2022/03/26 04:27:43;;;;;;;116.97;58.00;;;5.10;99.90;;;;;;5027629;28;20046;-66
2022/03/26 04:30:09;;;;;;;113.13;64.22;;;5.10;99.90;;;;;;5017549;28;20045;-66
2022/03/26 04:32:35;;;;;;;121.75;63.72;;;5.10;99.90;;;;;;5011403;28;20539;-66
2022/03/26 04:35:01;;;;;;;115.93;60.90;;;5.00;99.90;;;;;;4999250;28;20160;-66
2022/03/26 04:37:28;;;;;;;102.57;53.13;;;5.10;99.90;;;;;;5006301;28;20670;-67
2022/03/26 04:39:53;;;;;;;115.28;65.53;;;5.10;99.90;;;;;;5003934;28;20444;-66
2022/03/26 04:42:19;;;;;;;124.75;61.30;;;5.10;99.90;;;;;;5001765;28;20075;-66
2022/03/26 04:44:44;;;;;;;118.22;58.88;;;5.10;99.90;;;;;;5012009;28;20110;-66
2022/03/26 04:47:10;;;;;;;116.85;61.53;;;5.10;99.90;;;;;;5032344;28;20037;-68
2022/03/26 04:49:35;;;;;;;108.70;57.30;;;5.20;99.90;;;;;;5022763;28;20052;-69
2022/03/26 04:52:01;;;;;;;117.10;58.03;;;5.20;99.90;;;;;;5018019;28;20156;-69
2022/03/26 04:54:27;;;;;;;108.13;62.80;;;5.10;99.90;;;;;;5027809;28;20111;-68
2022/03/26 04:56:52;;;;;;;104.25;54.50;;;5.10;99.90;;;;;;4998598;28;20053;-69
2022/03/26 04:59:18;;;;;;;102.78;52.78;;;5.10;99.90;;;;;;5022160;28;20072;-69
2022/03/26 05:01:44;;;;;;;104.05;56.85;;;5.10;99.90;;;;;;5022248;28;20753;-69
2022/03/26 05:04:11;;;;;;;98.72;52.47;;;5.10;99.90;;;;;;5019127;28;20074;-69
2022/03/26 05:06:37;;;;;;;109.72;56.97;;;5.10;99.90;;;;;;5025115;28;20064;-69
2022/03/26 05:09:03;;;;;;;92.88;50.85;;;5.10;99.90;;;;;;5026393;28;20717;-69
2022/03/26 05:11:28;;;;;;;103.65;53.58;;;5.00;99.90;;;;;;5015842;28;20045;-68
2022/03/26 05:13:54;;;;;;;113.75;62.28;;;5.00;99.90;;;;;;5008794;28;20051;-69
2022/03/26 05:16:19;;;;;;;115.03;62.30;;;5.10;99.90;;;;;;5016455;28;20297;-69
2022/03/26 05:18:45;;;;;;;125.25;63.20;;;5.10;99.90;;;;;;5021489;28;20053;-69
2022/03/26 05:21:10;;;;;;;111.97;61.45;;;5.10;99.90;;;;;;5022438;28;20045;-69
2022/03/26 05:23:36;;;;;;;111.72;62.08;;;5.30;99.90;;;;;;5001704;28;20045;-69
2022/03/26 05:26:03;;;;;;;101.55;58.05;;;5.20;99.90;;;;;;5026185;28;20037;-69
2022/03/26 05:28:28;;;;;;;112.72;61.80;;;5.30;99.90;;;;;;5008321;28;20063;-69
2022/03/26 05:30:54;;;;;;;108.22;56.92;;;5.30;99.90;;;;;;5021301;28;20053;-68
2022/03/26 05:33:20;;;;;;;117.18;64.60;;;5.30;99.90;;;;;;5018139;28;20048;-69
2022/03/26 05:35:45;;;;;;;121.95;66.10;;;5.30;99.90;;;;;;5017606;28;20048;-69
2022/03/26 05:38:11;;;;;;;126.88;67.10;;;5.30;99.90;;;;;;5026399;28;20091;-69
2022/03/26 05:40:37;;;;;;;131.10;66.80;;;5.30;99.90;;;;;;5018270;28;20577;-69
2022/03/26 05:43:03;;;;;;;128.75;69.13;;;5.40;99.90;;;;;;5015192;28;20051;-69
2022/03/26 05:45:29;;;;;;;126.55;65.03;;;5.40;99.90;;;;;;5015435;28;20049;-69
2022/03/26 05:48:01;;;;;;;118.63;63.70;;;5.50;99.90;;;;;;5015168;28;20103;-69
2022/03/26 05:50:29;;;;;;;135.68;75.60;;;5.50;99.90;;;;;;5015478;28;20053;-69
2022/03/26 05:52:54;;;;;;;135.77;67.38;;;5.50;99.90;;;;;;4996720;28;20061;-69
2022/03/26 05:55:20;;;;;;;108.95;58.30;;;5.50;99.90;;;;;;5015315;28;20052;-69
2022/03/26 05:57:45;;;;;;;116.75;63.72;;;5.60;99.90;;;;;;5014546;28;20051;-69
2022/03/26 06:00:12;;;;;;;126.28;68.03;;;5.60;99.90;;;;;;5014580;28;20064;-69
2022/03/26 06:02:38;;;;;;;131.98;66.97;;;5.60;99.90;;;;;;4997497;28;20045;-69
2022/03/26 06:05:04;;;;;;;110.28;57.03;;;5.70;99.90;;;;;;5015092;28;20056;-69
2022/03/26 06:07:30;;;;;;;103.57;60.53;;;5.70;99.90;;;;;;5015040;28;20044;-69
2022/03/26 06:09:56;;;;;;;109.97;56.58;;;5.80;99.90;;;;;;5025862;28;20057;-69
2022/03/26 06:12:21;;;;;;;117.68;56.28;;;5.80;99.90;;;;;;5007640;28;20695;-69
2022/03/26 06:14:48;;;;;;;121.32;61.67;;;5.90;99.90;;;;;;5015643;28;20088;-69
2022/03/26 06:17:14;;;;;;;103.47;50.17;;;5.90;99.90;;;;;;5020793;28;20613;-69
2022/03/26 06:19:42;;;;;;;113.65;60.97;;;5.90;99.90;;;;;;5029559;28;20060;-69
2022/03/26 06:22:07;;;;;;;90.50;50.15;;;6.00;99.90;;;;;;5035325;28;20090;-69
2022/03/26 06:24:33;;;;;;;113.97;60.10;;;6.10;99.90;;;;;;5035609;28;20049;-69
2022/03/26 06:26:59;;;;;;;110.75;58.80;;;6.10;99.90;;;;;;5017697;28;20053;-69
2022/03/26 06:29:25;;;;;;;106.70;59.25;;;6.20;99.90;;;;;;4995135;28;20136;-69
2022/03/26 06:31:50;;;;;;;102.13;56.20;;;7.10;99.90;;;;;;4995196;28;20063;-69
2022/03/26 06:34:16;;;;;;;94.72;52.08;;;6.30;99.90;;;;;;5012628;28;20053;-69
2022/03/26 06:36:42;;;;;;;109.78;55.95;;;6.40;99.90;;;;;;5013400;28;20735;-69
2022/03/26 06:39:08;;;;;;;98.97;53.28;;;5.90;99.90;;;;;;5022676;28;20041;-69
2022/03/26 06:41:39;;;;;;;95.40;51.83;;;6.60;99.90;;;;;;4993963;28;20126;-69
2022/03/26 06:44:09;;;;;;;98.20;52.85;;;6.70;99.90;;;;;;5018514;28;20843;-69
2022/03/26 06:46:35;;;;;;;104.53;55.63;;;6.80;99.90;;;;;;5029139;28;20045;-69
2022/03/26 06:49:02;;;;;;;97.18;51.17;;;6.90;99.90;;;;;;5013614;28;20065;-69
2022/03/26 06:51:28;;;;;;;101.75;53.83;;;7.00;99.90;;;;;;5011013;28;20042;-69
2022/03/26 06:53:53;;;;;;;95.60;51.22;;;7.00;99.90;;;;;;5012586;28;20045;-69
2022/03/26 06:56:19;;;;;;;108.60;50.92;;;7.10;99.90;;;;;;4994420;28;20506;-69
2022/03/26 06:58:44;;;;;;;97.50;52.58;;;7.20;99.90;;;;;;5012797;28;20058;-68
2022/03/26 07:01:11;;;;;;;105.28;54.83;;;7.30;99.90;;;;;;4994777;28;20130;-68
2022/03/26 07:03:36;;;;;;;93.38;51.95;;;7.40;99.90;;;;;;4994758;28;20170;-68
2022/03/26 07:06:03;;;;;;;106.22;51.92;;;7.50;99.90;;;;;;5012591;28;20954;-69
2022/03/26 07:08:29;;;;;;;109.88;53.90;;;7.60;99.90;;;;;;5011749;28;20061;-68
2022/03/26 07:10:54;;;;;;;95.07;53.25;;;7.70;99.90;;;;;;4992883;28;20754;-69
2022/03/26 07:13:20;;;;;;;88.47;51.40;;;7.80;99.90;;;;;;5017979;28;20625;-69
2022/03/26 07:15:45;;;;;;;90.45;49.53;;;7.90;99.90;;;;;;5017092;28;20041;-68
2022/03/26 07:18:13;;;;;;;103.28;52.17;;;8.00;99.90;;;;;;5017763;28;20175;-69
2022/03/26 07:20:39;;;;;;;88.95;46.67;;;8.10;99.90;;;;;;5020691;28;20088;-68
2022/03/26 07:23:04;;;;;;;91.68;50.88;;;8.20;99.90;;;;;;5032564;28;20538;-69
2022/03/26 07:25:30;;;;;;;85.25;45.85;;;8.30;99.90;;;;;;5030706;28;20051;-67
2022/03/26 07:27:56;;;;;;;86.32;45.20;;;8.50;99.90;;;;;;5016565;28;20049;-68
2022/03/26 07:30:22;;;;;;;95.32;49.75;;;8.60;99.90;;;;;;5021546;28;20404;-68
2022/03/26 07:32:47;;;;;;;80.50;44.55;;;8.70;99.90;;;;;;5029721;28;20314;-68
2022/03/26 07:35:13;;;;;;;90.43;49.53;;;8.90;99.90;;;;;;5037577;28;20138;-68
2022/03/26 07:37:39;;;;;;;80.95;47.38;;;9.10;99.90;;;;;;5036600;28;20126;-68
2022/03/26 07:40:06;;;;;;;92.55;45.55;;;9.20;99.90;;;;;;5036147;28;20160;-68
2022/03/26 07:42:31;;;;;;;85.32;45.88;;;9.40;99.90;;;;;;5018894;28;20973;-68
2022/03/26 07:44:57;;;;;;;87.38;46.47;;;10.00;99.90;;;;;;5019466;28;20053;-68
2022/03/26 07:47:23;;;;;;;80.45;45.83;;;11.40;99.90;;;;;;5013588;28;20068;-68
2022/03/26 07:49:48;;;;;;;79.35;41.28;;;13.00;99.90;;;;;;5017879;28;20052;-66
2022/03/26 07:52:14;;;;;;;85.28;43.40;;;14.20;99.90;;;;;;5017984;28;20056;-66
2022/03/26 07:54:40;;;;;;;71.60;40.72;;;15.30;99.90;;;;;;5018758;28;20694;-66
2022/03/26 07:57:06;;;;;;;76.78;43.00;;;16.30;99.90;;;;;;5037594;28;20147;-66
2022/03/26 07:59:31;;;;;;;65.57;39.00;;;17.00;99.90;;;;;;5032039;28;20124;-66
2022/03/26 08:01:57;;;;;;;67.97;38.40;;;17.70;99.90;;;;;;5017036;28;20059;-66
2022/03/26 08:04:23;;;;;;;70.15;36.85;;;18.20;98.80;;;;;;5017420;28;20096;-66
2022/03/26 08:06:48;;;;;;;61.00;37.72;;;18.50;97.10;;;;;;4999165;28;20037;-66
2022/03/26 08:09:14;;;;;;;62.40;37.33;;;18.80;95.80;;;;;;5016631;28;20416;-66
2022/03/26 08:11:39;;;;;;;59.95;36.05;;;19.10;95.10;;;;;;5017535;28;20053;-66
2022/03/26 08:14:05;;;;;;;61.17;35.67;;;19.50;93.90;;;;;;5017146;28;20045;-66
2022/03/26 08:16:30;;;;;;;60.58;35.38;;;19.80;93.00;;;;;;5017536;28;20483;-66
2022/03/26 08:18:56;;;;;;;59.38;35.53;;;19.80;91.40;;;;;;5017804;28;20753;-66
2022/03/26 08:21:21;;;;;;;55.65;33.60;;;20.00;90.70;;;;;;5017709;28;20066;-66
2022/03/26 08:23:47;;;;;;;58.83;34.15;;;19.50;88.90;;;;;;5017776;28;20150;-66
2022/03/26 08:26:29;;;;;;;60.38;35.30;;;19.70;89.30;;;;;;5018982;28;20694;-67
2022/03/26 08:28:58;;;;;;;50.33;33.93;;;19.70;88.50;;;;;;5010826;28;20143;-66
2022/03/26 08:31:26;;;;;;;63.45;34.05;;;19.80;88.20;;;;;;5025025;28;20052;-67
2022/03/26 08:33:52;;;;;;;53.17;35.28;;;19.80;86.20;;;;;;5031282;28;20042;-66
2022/03/26 08:36:18;;;;;;;57.38;34.22;;;20.10;84.90;;;;;;5011928;28;20097;-66
2022/03/26 08:38:45;;;;;;;47.58;30.65;;;19.50;85.50;;;;;;5012139;28;20118;-66
2022/03/26 08:41:19;;;;;;;51.53;32.58;;;19.30;84.90;;;;;;5035543;28;20102;-66
2022/03/26 08:43:45;;;;;;;46.85;28.83;;;18.20;82.30;;;;;;5001129;28;20053;-66
2022/03/26 08:46:11;;;;;;;39.58;27.33;;;19.00;87.90;;;;;;5027407;28;20249;-66
2022/03/26 08:48:36;;;;;;;45.30;29.65;;;19.30;86.50;;;;;;5005456;28;20053;-66
2022/03/26 08:51:03;;;;;;;48.22;29.27;;;19.50;85.60;;;;;;5017996;28;20049;-66
2022/03/26 08:53:29;;;;;;;46.33;30.27;;;19.90;84.20;;;;;;4987857;28;20135;-67
2022/03/26 08:55:55;;;;;;;42.00;28.85;;;20.10;83.90;;;;;;5024782;28;20045;-67
2022/03/26 08:58:20;;;;;;;47.10;30.25;;;20.40;83.30;;;;;;5006230;28;20468;-66
2022/03/26 09:00:47;;;;;;;43.08;28.13;;;20.40;79.30;;;;;;5026924;28;20810;-67
2022/03/26 09:03:14;;;;;;;40.42;28.42;;;20.70;82.00;;;;;;5022653;28;20432;-66
2022/03/26 09:05:40;;;;;;;39.80;28.33;;;20.80;80.30;;;;;;4994968;28;20148;-67
2022/03/26 09:08:06;;;;;;;45.45;30.20;;;20.60;80.60;;;;;;5013835;28;20049;-67
2022/03/26 09:10:32;;;;;;;34.20;23.73;;;20.90;80.00;;;;;;5013731;28;20135;-67
2022/03/26 09:12:57;;;;;;;41.00;25.83;;;21.10;79.20;;;;;;5018394;28;20033;-67
2022/03/26 09:15:23;;;;;;;42.03;26.73;;;21.40;77.30;;;;;;5012333;28;20110;-67
2022/03/26 09:17:49;;;;;;;45.50;29.48;;;20.30;79.50;;;;;;4994445;28;20059;-66
2022/03/26 09:20:14;;;;;;;42.38;27.55;;;20.60;79.50;;;;;;4997210;28;20081;-66
2022/03/26 09:22:40;;;;;;;32.35;23.58;;;20.70;78.50;;;;;;4994401;28;20447;-67
2022/03/26 09:25:06;;;;;;;35.35;23.40;;;19.90;78.60;;;;;;4994862;28;20468;-67
2022/03/26 09:27:32;;;;;;;36.92;24.08;;;20.50;79.80;;;;;;5012493;28;20906;-67
2022/03/26 09:29:57;;;;;;;33.85;23.13;;;20.90;79.30;;;;;;4995405;28;20045;-67
2022/03/26 09:32:23;;;;;;;29.08;20.08;;;20.70;78.30;;;;;;5014894;28;20165;-67
2022/03/26 09:34:49;;;;;;;33.95;22.58;;;21.10;77.40;;;;;;4993021;28;20057;-67
2022/03/26 09:37:15;;;;;;;30.45;20.58;;;21.70;74.70;;;;;;5007013;28;20068;-68
2022/03/26 09:39:42;;;;;;;31.20;23.77;;;22.00;75.10;;;;;;5010561;28;20851;-68
2022/03/26 09:42:09;;;;;;;27.92;20.20;;;22.30;73.80;;;;;;5008946;28;20094;-66
2022/03/26 09:44:35;;;;;;;30.23;21.23;;;22.50;72.40;;;;;;5010181;28;20084;-66
2022/03/26 09:47:03;;;;;;;24.35;18.92;;;22.40;68.70;;;;;;5010744;28;20098;-66
2022/03/26 09:49:29;;;;;;;25.25;18.60;;;22.10;70.30;;;;;;4978850;28;20157;-66
2022/03/26 09:51:54;;;;;;;29.77;20.98;;;21.60;69.70;;;;;;4992410;28;20041;-66
2022/03/26 09:54:22;;;;;;;32.35;21.58;;;21.60;68.70;;;;;;5011367;28;20053;-66
2022/03/26 09:56:48;;;;;;;26.40;17.20;;;20.90;71.00;;;;;;5002876;28;20124;-66
2022/03/26 09:59:13;;;;;;;27.20;18.60;;;21.30;72.00;;;;;;4995767;28;20049;-66
2022/03/26 10:01:39;;;;;;;23.92;17.08;;;21.70;71.80;;;;;;5012135;28;20048;-66
2022/03/26 10:04:07;;;;;;;25.23;16.88;;;22.00;70.20;;;;;;4997386;28;20045;-66
2022/03/26 10:06:32;;;;;;;28.77;19.52;;;21.70;69.70;;;;;;4991478;28;20064;-66
2022/03/26 10:08:58;;;;;;;23.08;16.48;;;21.80;68.40;;;;;;5015223;28;20483;-66
2022/03/26 10:11:23;;;;;;;20.17;14.30;;;22.00;70.20;;;;;;5010665;28;20610;-66
2022/03/26 10:13:50;;;;;;;18.48;12.70;;;22.20;69.40;;;;;;4992265;28;20087;-66
2022/03/26 10:16:16;;;;;;;19.30;13.00;;;21.20;68.50;;;;;;5012382;28;20083;-66
2022/03/26 10:18:44;;;;;;;19.73;13.38;;;21.10;68.90;;;;;;5008033;28;20041;-66
2022/03/26 10:21:16;;;;;;;20.33;12.05;;;20.40;68.00;;;;;;5011883;28;20049;-66
2022/03/26 10:23:52;;;;;;;21.10;13.25;;;20.10;68.80;;;;;;5010920;28;20060;-66
2022/03/26 10:26:21;;;;;;;15.20;10.18;;;19.30;70.00;;;;;;4991921;28;20060;-66
2022/03/26 10:28:58;;;;;;;15.48;9.90;;;19.70;71.10;;;;;;5011251;28;20073;-65
2022/03/26 10:34:21;;;;;;;15.48;9.48;;;20.20;69.50;;;;;;5025597;28;20053;-68
2022/03/26 10:36:55;;;;;;;13.68;9.02;;;21.00;68.90;;;;;;4996889;28;20156;-67
2022/03/26 10:39:26;;;;;;;12.73;9.55;;;21.00;68.60;;;;;;5018269;28;20057;-66
2022/03/26 10:41:53;;;;;;;18.17;10.45;;;20.80;66.50;;;;;;5012101;28;20168;-66
2022/03/26 10:44:22;;;;;;;13.07;10.20;;;20.20;68.20;;;;;;5010921;28;20049;-67
2022/03/26 10:47:03;;;;;;;14.48;9.45;;;20.80;69.00;;;;;;5011346;28;20158;-66
2022/03/26 10:49:36;;;;;;;15.43;9.18;;;20.50;67.80;;;;;;5010175;28;20159;-66
2022/03/26 10:52:11;;;;;;;14.50;9.35;;;20.40;67.60;;;;;;4990659;28;20083;-66
2022/03/26 10:54:37;;;;;;;13.40;8.02;;;19.20;67.60;;;;;;4992208;28;20049;-66
2022/03/26 10:57:03;;;;;;;13.95;8.95;;;18.70;72.40;;;;;;5013823;28;20049;-66
2022/03/26 10:59:30;;;;;;;12.25;8.40;;;17.90;74.90;;;;;;5016351;28;20144;-66
2022/03/26 11:01:57;;;;;;;12.35;8.57;;;17.30;75.70;;;;;;5008343;28;20045;-66
2022/03/26 11:04:22;;;;;;;13.00;8.50;;;17.00;78.50;;;;;;5013190;28;20064;-66
2022/03/26 11:06:48;;;;;;;13.43;8.70;;;17.00;80.50;;;;;;5014543;28;20842;-66
2022/03/26 11:09:17;;;;;;;10.68;7.60;;;16.70;80.20;;;;;;4991748;28;20057;-66
2022/03/26 11:11:47;;;;;;;10.80;8.02;;;16.80;80.50;;;;;;5003239;28;20056;-66
2022/03/26 11:14:24;;;;;;;14.80;9.00;;;16.70;82.10;;;;;;5016332;28;20797;-66
2022/03/26 11:17:07;;;;;;;12.02;8.50;;;16.50;82.20;;;;;;5016243;28;20178;-66
2022/03/26 11:20:04;;;;;;;14.55;10.25;;;16.30;83.30;;;;;;4993284;28;20049;-66
2022/03/26 11:22:38;;;;;;;9.35;7.47;;;16.30;84.80;;;;;;5014637;28;20052;-66
2022/03/26 11:25:07;;;;;;;12.00;7.88;;;16.40;84.80;;;;;;5011527;28;20042;-66
2022/03/26 11:27:50;;;;;;;9.77;6.22;;;16.30;84.60;;;;;;5010563;28;20152;-66
2022/03/26 11:30:38;;;;;;;7.55;5.97;;;16.30;84.30;;;;;;5014560;28;20053;-66
2022/03/26 11:33:17;;;;;;;9.70;6.50;;;16.20;85.40;;;;;;5014507;28;20835;-66
2022/03/26 11:35:59;;;;;;;8.45;6.50;;;16.30;86.30;;;;;;5014485;28;20128;-66
2022/03/26 11:38:30;;;;;;;14.45;7.72;;;16.30;86.70;;;;;;5028255;28;20055;-66
2022/03/26 11:40:57;;;;;;;9.80;6.57;;;16.20;88.10;;;;;;4999150;28;20132;-65
2022/03/26 11:43:44;;;;;;;8.68;5.72;;;16.00;88.30;;;;;;5001122;28;20585;-66
2022/03/26 11:52:23;;;;;;;9.00;5.82;;;15.90;89.30;;;;;;5033169;28;20083;-66
2022/03/26 11:55:00;;;;;;;8.93;6.35;;;15.80;89.10;;;;;;5026293;28;20077;-66
2022/03/26 11:57:26;;;;;;;8.20;5.30;;;15.70;89.20;;;;;;5025844;28;20045;-66
2022/03/26 11:59:53;;;;;;;6.78;5.30;;;15.70;90.20;;;;;;5018356;28;20496;-65
2022/03/26 12:02:27;;;;;;;7.97;5.75;;;15.70;90.00;;;;;;5016764;28;20045;-66
2022/03/26 12:04:56;;;;;;;7.13;4.88;;;16.00;90.60;;;;;;5012892;28;20404;-66
2022/03/26 12:07:26;;;;;;;9.23;5.15;;;16.10;90.10;;;;;;5013451;28;20099;-66
2022/03/26 12:10:04;;;;;;;5.72;4.60;;;16.20;88.80;;;;;;4992951;28;20061;-66
2022/03/26 12:12:58;;;;;;;8.15;5.00;;;16.50;89.40;;;;;;4995233;28;20091;-66
2022/03/26 12:15:25;;;;;;;;;;;16.40;86.50;;;;;;5011963;28;20037;-66
2022/03/26 12:18:13;;;;;;;6.85;5.97;;;16.50;87.00;;;;;;5011885;28;19920;-66
2022/03/26 12:20:42;;;;;;;7.07;5.03;;;16.50;87.40;;;;;;5014410;28;20053;-66
2022/03/26 12:23:11;;;;;;;6.05;4.72;;;16.70;86.90;;;;;;5010968;28;20154;-64
2022/03/26 12:25:50;;;;;;;6.90;4.63;;;16.60;85.40;;;;;;5023247;28;20046;-66
2022/03/26 12:28:31;;;;;;;6.03;4.35;;;16.60;86.30;;;;;;5017214;28;20049;-66
2022/03/26 12:30:59;;;;;;;5.38;4.72;;;16.60;88.20;;;;;;5019092;28;20052;-65
2022/03/26 12:33:26;;;;;;;6.70;5.28;;;16.20;88.70;;;;;;5018719;28;20144;-66
2022/03/26 12:35:55;;;;;;;8.30;5.05;;;16.20;90.40;;;;;;5018148;28;20909;-65
2022/03/26 12:38:26;;;;;;;6.93;5.57;;;16.10;90.80;;;;;;5029096;28;20088;-65
2022/03/26 12:40:57;;;;;;;8.90;6.28;;;15.90;91.20;;;;;;5020246;28;20081;-65
2022/03/26 12:43:24;;;;;;;6.97;5.00;;;15.70;92.10;;;;;;5004577;28;20052;-65